Time,TemperatureF,DewpointF,PressureIn,WindDirection,WindDirectionDegrees,WindSpeedMPH,WindSpeedGustMPH,Humidity,HourlyPrecipIn,Conditions,Clouds,dailyrainin,SoftwareType,DateUTC
2013-05-09 00:03:00,51.3,50.2,30.15,West,262,0.0,1.0,96,0.00,,SKC,0.00,VWS V14.01,2013-05-09 07:03:00,
2013-05-09 00:08:00,50.9,49.8,30.15,West,262,1.0,1.0,96,0.00,,SKC,0.00,VWS V14.01,2013-05-09 07:08:00,
2013-05-09 00:13:00,50.5,49.1,30.15,West,262,1.0,2.0,95,0.00,,SKC,0.00,VWS V14.01,2013-05-09 07:13:00,
2013-05-09 00:18:00,50.1,48.7,30.15,West,262,2.0,2.0,95,0.00,,SKC,0.00,VWS V14.01,2013-05-09 07:18:00,
2013-05-09 00:23:00,50.1,49.0,30.15,West,262,0.0,2.0,96,0.00,,SKC,0.00,VWS V14.01,2013-05-09 07:23:00,
2013-05-09 00:28:00,50.0,48.9,30.15,West,262,0.0,2.0,96,0.00,,SKC,0.00,VWS V14.01,2013-05-09 07:28:00,
2013-05-09 00:33:00,49.7,48.6,30.15,West,262,1.0,2.0,96,0.00,,SKC,0.00,VWS V14.01,2013-05-09 07:33:00,
2013-05-09 00:38:00,49.7,48.6,30.15,West,262,0.0,2.0,96,0.00,,SKC,0.00,VWS V14.01,2013-05-09 07:38:00,
2013-05-09 00:43:00,49.5,48.4,30.15,West,262,0.0,2.0,96,0.00,,SKC,0.00,VWS V14.01,2013-05-09 07:43:00,
2013-05-09 00:48:00,49.3,48.2,30.15,West,262,0.0,1.0,96,0.00,,SKC,0.00,VWS V14.01,2013-05-09 07:48:00,
2013-05-09 00:54:00,49.0,47.9,30.15,West,262,0.0,1.0,96,0.00,,SKC,0.00,VWS V14.01,2013-05-09 07:54:00,
2013-05-09 00:59:00,49.0,47.9,30.15,West,262,0.0,1.0,96,0.00,,SKC,0.00,VWS V14.01,2013-05-09 07:59:00,
2013-05-09 01:04:00,48.9,47.8,30.15,West,262,0.0,1.0,96,0.00,,SKC,0.00,VWS V14.01,2013-05-09 08:04:00,
2013-05-09 01:09:00,48.9,48.1,30.15,West,262,0.0,1.0,97,0.00,,SKC,0.00,VWS V14.01,2013-05-09 08:09:00,
2013-05-09 01:14:00,48.9,48.1,30.15,West,262,0.0,1.0,97,0.00,,SKC,0.00,VWS V14.01,2013-05-09 08:14:00,
2013-05-09 01:19:00,48.8,48.0,30.16,West,262,0.0,1.0,97,0.00,,SKC,0.00,VWS V14.01,2013-05-09 08:19:00,
2013-05-09 01:24:00,48.6,47.5,30.16,West,262,0.0,1.0,96,0.00,,SKC,0.00,VWS V14.01,2013-05-09 08:24:00,
2013-05-09 01:29:00,48.5,47.7,30.16,West,262,0.0,1.0,97,0.00,,SKC,0.00,VWS V14.01,2013-05-09 08:29:00,
2013-05-09 01:34:00,48.4,47.6,30.16,West,262,0.0,1.0,97,0.00,,SKC,0.00,VWS V14.01,2013-05-09 08:34:00,
2013-05-09 01:40:00,48.3,47.5,30.16,West,262,1.0,2.0,97,0.00,,SKC,0.00,VWS V14.01,2013-05-09 08:40:00,
2013-05-09 01:45:00,48.2,48.2,30.16,West,262,0.0,2.0,100,0.00,,SKC,0.00,VWS V14.01,2013-05-09 08:45:00,
2013-05-09 01:54:00,48.1,47.3,30.16,West,262,1.0,1.0,97,0.00,,SKC,0.00,VWS V14.01,2013-05-09 08:54:00,
2013-05-09 01:59:00,48.1,47.3,30.16,West,262,0.0,2.0,97,0.00,,SKC,0.00,VWS V14.01,2013-05-09 08:59:00,
2013-05-09 02:04:00,48.1,47.3,30.16,West,262,0.0,2.0,97,0.00,,SKC,0.00,VWS V14.01,2013-05-09 09:04:00,
2013-05-09 02:09:00,48.2,47.4,30.17,West,262,0.0,2.0,97,0.00,,SKC,0.00,VWS V14.01,2013-05-09 09:09:00,
2013-05-09 02:14:00,48.1,47.3,30.17,West,262,0.0,2.0,97,0.00,,SKC,0.00,VWS V14.01,2013-05-09 09:14:00,
2013-05-09 02:19:00,48.0,47.2,30.17,West,262,0.0,1.0,97,0.00,,SKC,0.00,VWS V14.01,2013-05-09 09:19:00,
2013-05-09 02:24:00,47.9,47.1,30.17,West,262,0.0,1.0,97,0.00,,SKC,0.00,VWS V14.01,2013-05-09 09:24:00,
2013-05-09 02:29:00,47.6,46.8,30.17,West,262,0.0,1.0,97,0.00,,SKC,0.00,VWS V14.01,2013-05-09 09:29:00,
2013-05-09 02:34:00,47.6,46.8,30.17,West,262,0.0,1.0,97,0.00,,SKC,0.00,VWS V14.01,2013-05-09 09:34:00,
2013-05-09 02:39:00,47.6,46.8,30.17,West,262,0.0,1.0,97,0.00,,SKC,0.00,VWS V14.01,2013-05-09 09:39:00,
2013-05-09 02:44:00,47.6,46.8,30.17,West,262,2.0,2.0,97,0.00,,SKC,0.00,VWS V14.01,2013-05-09 09:44:00,
2013-05-09 02:49:00,47.6,46.8,30.18,West,262,1.0,2.0,97,0.00,,SKC,0.00,VWS V14.01,2013-05-09 09:49:00,
2013-05-09 02:54:00,47.4,46.6,30.18,West,262,0.0,2.0,97,0.00,,SKC,0.00,VWS V14.01,2013-05-09 09:54:00,
2013-05-09 02:59:00,47.4,46.6,30.18,West,262,1.0,2.0,97,0.00,,SKC,0.00,VWS V14.01,2013-05-09 09:59:00,
2013-05-09 03:04:00,47.3,46.5,30.18,West,262,1.0,2.0,97,0.00,,SKC,0.00,VWS V14.01,2013-05-09 10:04:00,
2013-05-09 03:09:00,47.2,46.4,30.18,West,262,1.0,2.0,97,0.00,,SKC,0.00,VWS V14.01,2013-05-09 10:09:00,
2013-05-09 03:14:00,47.0,46.2,30.17,West,262,0.0,2.0,97,0.00,,SKC,0.00,VWS V14.01,2013-05-09 10:14:00,
2013-05-09 03:19:00,47.0,46.2,30.18,West,262,0.0,1.0,97,0.00,,SKC,0.00,VWS V14.01,2013-05-09 10:19:00,
2013-05-09 03:24:00,46.8,46.0,30.18,West,262,0.0,1.0,97,0.00,,SKC,0.00,VWS V14.01,2013-05-09 10:24:00,
2013-05-09 03:29:00,46.5,45.7,30.18,West,262,1.0,1.0,97,0.00,,SKC,0.00,VWS V14.01,2013-05-09 10:29:00,
2013-05-09 03:34:00,46.3,45.5,30.18,West,262,0.0,1.0,97,0.00,,SKC,0.00,VWS V14.01,2013-05-09 10:34:00,
2013-05-09 03:39:00,46.1,45.3,30.18,West,262,0.0,2.0,97,0.00,,SKC,0.00,VWS V14.01,2013-05-09 10:39:00,
2013-05-09 03:44:00,46.0,45.2,30.18,West,262,0.0,2.0,97,0.00,,SKC,0.00,VWS V14.01,2013-05-09 10:44:00,
2013-05-09 03:49:00,46.0,45.2,30.18,West,262,0.0,0.0,97,0.00,,SKC,0.00,VWS V14.01,2013-05-09 10:49:00,
2013-05-09 03:54:00,46.0,45.2,30.18,West,262,0.0,1.0,97,0.00,,SKC,0.00,VWS V14.01,2013-05-09 10:54:00,
2013-05-09 03:59:00,46.0,45.2,30.18,West,262,1.0,1.0,97,0.00,,SKC,0.00,VWS V14.01,2013-05-09 10:59:00,
2013-05-09 04:04:00,46.0,45.2,30.18,West,262,1.0,2.0,97,0.00,,SKC,0.00,VWS V14.01,2013-05-09 11:04:00,
2013-05-09 04:09:00,46.0,45.2,30.18,West,262,1.0,2.0,97,0.00,,SKC,0.00,VWS V14.01,2013-05-09 11:09:00,
2013-05-09 04:14:00,45.8,45.3,30.19,West,262,0.0,2.0,98,0.00,,SKC,0.00,VWS V14.01,2013-05-09 11:14:00,
2013-05-09 04:19:00,45.6,45.1,30.18,West,262,0.0,1.0,98,0.00,,SKC,0.00,VWS V14.01,2013-05-09 11:19:00,
2013-05-09 04:24:00,45.5,44.7,30.19,West,262,0.0,1.0,97,0.00,,SKC,0.00,VWS V14.01,2013-05-09 11:24:00,
2013-05-09 04:29:00,45.6,45.1,30.19,West,262,0.0,1.0,98,0.00,,SKC,0.00,VWS V14.01,2013-05-09 11:29:00,
2013-05-09 04:34:00,45.7,45.2,30.19,West,262,0.0,1.0,98,0.00,,SKC,0.00,VWS V14.01,2013-05-09 11:34:00,
2013-05-09 04:39:00,45.8,45.3,30.19,West,262,0.0,1.0,98,0.00,,SKC,0.00,VWS V14.01,2013-05-09 11:39:00,
2013-05-09 04:44:00,45.9,45.4,30.19,West,262,1.0,1.0,98,0.00,,SKC,0.00,VWS V14.01,2013-05-09 11:44:00,
2013-05-09 04:49:00,46.0,45.5,30.19,West,262,0.0,1.0,98,0.00,,SKC,0.00,VWS V14.01,2013-05-09 11:49:00,
2013-05-09 04:54:00,46.0,45.5,30.19,West,262,0.0,1.0,98,0.00,,SKC,0.00,VWS V14.01,2013-05-09 11:54:00,
2013-05-09 04:59:00,46.0,45.5,30.19,West,275,2.0,2.0,98,0.00,,SKC,0.00,VWS V14.01,2013-05-09 11:59:00,
2013-05-09 05:04:00,45.9,45.4,30.19,NNW,344,1.0,3.0,98,0.00,,SKC,0.00,VWS V14.01,2013-05-09 12:04:00,
2013-05-09 05:09:00,45.9,45.4,30.19,ENE,62,2.0,3.0,98,0.00,,SKC,0.00,VWS V14.01,2013-05-09 12:09:00,
2013-05-09 05:14:00,46.0,45.5,30.19,ENE,72,1.0,3.0,98,0.00,,SKC,0.00,VWS V14.01,2013-05-09 12:14:00,
2013-05-09 05:19:00,46.0,45.5,30.19,ENE,72,1.0,2.0,98,0.00,,SKC,0.00,VWS V14.01,2013-05-09 12:19:00,
2013-05-09 05:24:00,45.9,45.4,30.20,ENE,72,1.0,2.0,98,0.00,,SKC,0.00,VWS V14.01,2013-05-09 12:24:00,
2013-05-09 05:29:00,45.9,45.4,30.20,ENE,72,0.0,2.0,98,0.00,,SKC,0.00,VWS V14.01,2013-05-09 12:29:00,
2013-05-09 05:34:00,45.9,45.4,30.19,ENE,72,0.0,1.0,98,0.00,,SKC,0.00,VWS V14.01,2013-05-09 12:34:00,
2013-05-09 05:39:00,45.9,45.4,30.20,ENE,72,1.0,1.0,98,0.00,,SKC,0.00,VWS V14.01,2013-05-09 12:39:00,
2013-05-09 05:44:00,45.9,45.4,30.20,ENE,70,0.0,2.0,98,0.00,,SKC,0.00,VWS V14.01,2013-05-09 12:44:00,
2013-05-09 05:49:00,45.8,45.3,30.20,ENE,70,0.0,1.0,98,0.00,,SKC,0.00,VWS V14.01,2013-05-09 12:49:00,
2013-05-09 05:55:00,45.8,45.3,30.20,ENE,70,1.0,1.0,98,0.00,,SKC,0.00,VWS V14.01,2013-05-09 12:55:00,
2013-05-09 06:00:00,45.7,45.2,30.20,ENE,70,0.0,1.0,98,0.00,,SKC,0.00,VWS V14.01,2013-05-09 13:00:00,
2013-05-09 06:05:00,45.5,45.0,30.20,NE,42,0.0,2.0,98,0.00,,SKC,0.00,VWS V14.01,2013-05-09 13:05:00,
2013-05-09 06:10:00,45.5,45.0,30.21,NE,42,0.0,2.0,98,0.00,,SKC,0.00,VWS V14.01,2013-05-09 13:10:00,
2013-05-09 06:15:00,45.5,45.0,30.21,NE,42,0.0,2.0,98,0.00,,SKC,0.00,VWS V14.01,2013-05-09 13:15:00,
2013-05-09 06:20:00,45.6,45.1,30.21,NE,42,2.0,3.0,98,0.00,,SKC,0.00,VWS V14.01,2013-05-09 13:20:00,
2013-05-09 06:25:00,45.6,45.1,30.21,NE,42,0.0,3.0,98,0.00,,SKC,0.00,VWS V14.01,2013-05-09 13:25:00,
2013-05-09 06:30:00,45.6,45.1,30.21,NE,42,0.0,3.0,98,0.00,,SKC,0.00,VWS V14.01,2013-05-09 13:30:00,
2013-05-09 06:35:00,45.6,45.1,30.21,NE,42,1.0,3.0,98,0.00,,SKC,0.00,VWS V14.01,2013-05-09 13:35:00,
2013-05-09 06:40:00,45.9,45.4,30.21,NE,42,0.0,3.0,98,0.00,,SKC,0.00,VWS V14.01,2013-05-09 13:40:00,
2013-05-09 06:45:00,45.9,45.4,30.21,NE,42,2.0,3.0,98,0.00,,SKC,0.00,VWS V14.01,2013-05-09 13:45:00,
2013-05-09 06:50:00,45.8,45.3,30.22,NE,42,0.0,2.0,98,0.00,,SKC,0.00,VWS V14.01,2013-05-09 13:50:00,
2013-05-09 06:55:00,46.0,45.5,30.22,NE,42,0.0,2.0,98,0.00,,SKC,0.00,VWS V14.01,2013-05-09 13:55:00,
2013-05-09 07:00:00,46.2,45.7,30.22,NE,42,1.0,2.0,98,0.00,,SKC,0.00,VWS V14.01,2013-05-09 14:00:00,
2013-05-09 07:05:00,46.4,45.9,30.22,NE,42,0.0,1.0,98,0.00,,SKC,0.00,VWS V14.01,2013-05-09 14:05:00,
2013-05-09 07:10:00,46.5,46.0,30.22,NE,42,0.0,1.0,98,0.00,,SKC,0.00,VWS V14.01,2013-05-09 14:10:00,
2013-05-09 07:15:00,46.7,46.2,30.22,NE,42,0.0,2.0,98,0.00,,SKC,0.00,VWS V14.01,2013-05-09 14:15:00,
2013-05-09 07:20:00,46.9,46.6,30.22,NE,42,0.0,1.0,99,0.00,,SKC,0.00,VWS V14.01,2013-05-09 14:20:00,
2013-05-09 07:25:00,47.0,46.5,30.22,NE,42,0.0,1.0,98,0.00,,SKC,0.00,VWS V14.01,2013-05-09 14:25:00,
2013-05-09 07:30:00,47.2,46.7,30.22,NE,42,0.0,1.0,98,0.00,,SKC,0.00,VWS V14.01,2013-05-09 14:30:00,
2013-05-09 07:35:00,47.4,47.1,30.23,NE,42,2.0,2.0,99,0.00,,SKC,0.00,VWS V14.01,2013-05-09 14:35:00,
2013-05-09 07:40:00,47.7,47.4,30.22,NE,42,0.0,2.0,99,0.00,,SKC,0.00,VWS V14.01,2013-05-09 14:40:00,
2013-05-09 07:45:00,48.0,47.7,30.23,NE,42,0.0,2.0,99,0.00,,SKC,0.00,VWS V14.01,2013-05-09 14:45:00,
2013-05-09 07:50:00,48.1,47.8,30.23,NE,42,0.0,2.0,99,0.00,,SKC,0.00,VWS V14.01,2013-05-09 14:50:00,
2013-05-09 07:55:00,48.7,48.4,30.23,NE,42,0.0,2.0,99,0.00,,SKC,0.00,VWS V14.01,2013-05-09 14:55:00,
2013-05-09 08:00:00,48.5,48.2,30.22,NE,42,0.0,2.0,99,0.00,,SKC,0.00,VWS V14.01,2013-05-09 15:00:00,
2013-05-09 08:05:00,48.5,48.2,30.23,NE,42,0.0,1.0,99,0.00,,SKC,0.00,VWS V14.01,2013-05-09 15:05:00,
2013-05-09 08:10:00,48.6,48.3,30.23,NNW,328,1.0,2.0,99,0.00,,SKC,0.00,VWS V14.01,2013-05-09 15:10:00,
2013-05-09 08:15:00,48.6,48.1,30.23,West,273,1.0,4.0,98,0.00,,SKC,0.00,VWS V14.01,2013-05-09 15:15:00,
2013-05-09 08:20:00,48.8,48.3,30.23,WSW,250,2.0,4.0,98,0.00,,SKC,0.00,VWS V14.01,2013-05-09 15:20:00,
2013-05-09 08:25:00,48.9,48.4,30.23,WSW,251,1.0,4.0,98,0.00,,SKC,0.00,VWS V14.01,2013-05-09 15:25:00,
2013-05-09 08:30:00,49.0,48.7,30.22,WSW,251,1.0,1.0,99,0.00,,SKC,0.00,VWS V14.01,2013-05-09 15:30:00,
2013-05-09 08:35:00,49.2,48.9,30.23,WSW,251,0.0,2.0,99,0.00,,SKC,0.00,VWS V14.01,2013-05-09 15:35:00,
2013-05-09 08:40:00,49.2,48.9,30.23,WSW,251,0.0,2.0,99,0.00,,SKC,0.00,VWS V14.01,2013-05-09 15:40:00,
2013-05-09 08:45:00,49.4,48.9,30.22,WSW,251,0.0,1.0,98,0.00,,SKC,0.00,VWS V14.01,2013-05-09 15:45:00,
2013-05-09 08:50:00,49.7,49.4,30.22,WSW,251,0.0,1.0,99,0.00,,SKC,0.00,VWS V14.01,2013-05-09 15:50:00,
2013-05-09 08:55:00,49.7,49.4,30.22,WSW,251,0.0,2.0,99,0.00,,SKC,0.00,VWS V14.01,2013-05-09 15:55:00,
2013-05-09 09:00:00,49.7,49.4,30.22,West,270,4.0,4.0,99,0.00,,SKC,0.00,VWS V14.01,2013-05-09 16:00:00,
2013-05-09 09:05:00,49.6,49.3,30.22,West,267,2.0,5.0,99,0.00,,SKC,0.00,VWS V14.01,2013-05-09 16:05:00,
2013-05-09 09:10:00,49.8,49.5,30.22,WNW,285,0.0,5.0,99,0.00,,SKC,0.00,VWS V14.01,2013-05-09 16:10:00,
2013-05-09 09:15:00,49.9,49.6,30.22,WNW,285,0.0,1.0,99,0.00,,SKC,0.00,VWS V14.01,2013-05-09 16:15:00,
2013-05-09 09:20:00,50.1,49.8,30.22,WNW,285,0.0,2.0,99,0.00,,SKC,0.00,VWS V14.01,2013-05-09 16:20:00,
2013-05-09 09:25:00,50.3,50.0,30.22,WNW,285,0.0,2.0,99,0.00,,SKC,0.00,VWS V14.01,2013-05-09 16:25:00,
2013-05-09 09:30:00,50.2,49.9,30.22,WNW,285,1.0,1.0,99,0.00,,SKC,0.00,VWS V14.01,2013-05-09 16:30:00,
2013-05-09 09:35:00,50.5,50.0,30.22,WNW,285,0.0,3.0,98,0.00,,SKC,0.00,VWS V14.01,2013-05-09 16:35:00,
2013-05-09 09:40:00,50.8,50.3,30.22,WNW,285,0.0,3.0,98,0.00,,SKC,0.00,VWS V14.01,2013-05-09 16:40:00,
2013-05-09 09:45:00,51.1,50.6,30.22,WNW,285,4.0,4.0,98,0.00,,SKC,0.00,VWS V14.01,2013-05-09 16:45:00,
2013-05-09 09:50:00,51.0,50.5,30.22,West,280,1.0,4.0,98,0.00,,SKC,0.00,VWS V14.01,2013-05-09 16:50:00,
2013-05-09 09:55:00,51.4,50.6,30.22,West,280,2.0,4.0,97,0.00,,SKC,0.00,VWS V14.01,2013-05-09 16:55:00,
2013-05-09 10:00:00,51.3,50.5,30.21,West,280,2.0,2.0,97,0.00,,SKC,0.00,VWS V14.01,2013-05-09 17:00:00,
2013-05-09 10:05:00,51.6,50.5,30.22,West,280,0.0,3.0,96,0.00,,SKC,0.00,VWS V14.01,2013-05-09 17:05:00,
2013-05-09 10:10:00,52.1,51.0,30.21,West,281,0.0,3.0,96,0.00,,SKC,0.00,VWS V14.01,2013-05-09 17:10:00,
2013-05-09 10:15:00,52.1,50.7,30.21,West,280,3.0,4.0,95,0.00,,SKC,0.00,VWS V14.01,2013-05-09 17:15:00,
2013-05-09 10:21:00,52.3,50.9,30.21,West,279,4.0,5.0,95,0.00,,SKC,0.00,VWS V14.01,2013-05-09 17:21:00,
2013-05-09 10:26:00,52.6,51.2,30.21,WNW,288,1.0,5.0,95,0.00,,SKC,0.00,VWS V14.01,2013-05-09 17:26:00,
2013-05-09 10:31:00,52.8,51.1,30.21,WNW,298,4.0,5.0,94,0.00,,SKC,0.00,VWS V14.01,2013-05-09 17:31:00,
2013-05-09 10:36:00,53.1,51.4,30.21,West,278,2.0,5.0,94,0.00,,SKC,0.00,VWS V14.01,2013-05-09 17:36:00,
2013-05-09 10:41:00,53.1,51.4,30.21,WNW,291,3.0,5.0,94,0.00,,SKC,0.00,VWS V14.01,2013-05-09 17:41:00,
2013-05-09 10:46:00,52.6,50.6,30.21,West,275,0.0,1.0,93,0.00,,SKC,0.00,VWS V14.01,2013-05-09 17:46:00,
2013-05-09 10:51:00,52.8,50.8,30.22,WSW,254,3.0,5.0,93,0.00,,SKC,0.00,VWS V14.01,2013-05-09 17:51:00,
2013-05-09 10:56:00,52.8,50.8,30.21,SW,234,4.0,5.0,93,0.00,,SKC,0.00,VWS V14.01,2013-05-09 17:56:00,
2013-05-09 11:01:00,53.3,51.3,30.21,SW,230,4.0,5.0,93,0.00,,SKC,0.00,VWS V14.01,2013-05-09 18:01:00,
2013-05-09 11:06:00,53.0,51.0,30.21,SW,226,2.0,6.0,93,0.00,,SKC,0.00,VWS V14.01,2013-05-09 18:06:00,
2013-05-09 11:11:00,53.5,51.5,30.21,SW,236,4.0,6.0,93,0.00,,SKC,0.00,VWS V14.01,2013-05-09 18:11:00,
2013-05-09 11:16:00,54.1,52.1,30.21,SW,229,4.0,5.0,93,0.00,,SKC,0.00,VWS V14.01,2013-05-09 18:16:00,
2013-05-09 11:21:00,54.9,52.6,30.21,SW,234,6.0,6.0,92,0.00,,SKC,0.00,VWS V14.01,2013-05-09 18:21:00,
2013-05-09 11:26:00,54.4,51.8,30.21,WSW,252,5.0,7.0,91,0.00,,SKC,0.00,VWS V14.01,2013-05-09 18:26:00,
2013-05-09 11:31:00,54.9,52.3,30.21,WSW,257,6.0,6.0,91,0.00,,SKC,0.00,VWS V14.01,2013-05-09 18:31:00,
2013-05-09 11:36:00,55.4,52.5,30.21,WSW,252,5.0,8.0,90,0.00,,SKC,0.00,VWS V14.01,2013-05-09 18:36:00,
2013-05-09 11:41:00,55.4,52.5,30.21,West,261,7.0,8.0,90,0.00,,SKC,0.00,VWS V14.01,2013-05-09 18:41:00,
2013-05-09 11:46:00,55.1,52.5,30.20,WSW,241,4.0,5.0,91,0.00,,SKC,0.00,VWS V14.01,2013-05-09 18:46:00,
2013-05-09 11:51:00,55.4,52.8,30.21,WSW,245,5.0,6.0,91,0.00,,SKC,0.00,VWS V14.01,2013-05-09 18:51:00,
2013-05-09 11:56:00,55.6,52.7,30.21,SW,236,4.0,8.0,90,0.00,,SKC,0.00,VWS V14.01,2013-05-09 18:56:00,
2013-05-09 12:01:00,55.9,53.0,30.21,SW,235,7.0,8.0,90,0.00,,SKC,0.00,VWS V14.01,2013-05-09 19:01:00,
2013-05-09 12:06:00,56.3,53.1,30.21,WSW,244,5.0,8.0,89,0.00,,SKC,0.00,VWS V14.01,2013-05-09 19:06:00,
2013-05-09 12:11:00,56.4,53.2,30.21,West,267,6.0,8.0,89,0.00,,SKC,0.00,VWS V14.01,2013-05-09 19:11:00,
2013-05-09 12:16:00,57.2,54.0,30.20,SW,229,6.0,9.0,89,0.00,,SKC,0.00,VWS V14.01,2013-05-09 19:16:00,
2013-05-09 12:21:00,56.8,53.3,30.20,West,269,7.0,9.0,88,0.00,,SKC,0.00,VWS V14.01,2013-05-09 19:21:00,
2013-05-09 12:26:00,56.6,53.4,30.20,West,260,4.0,9.0,89,0.00,,SKC,0.00,VWS V14.01,2013-05-09 19:26:00,
2013-05-09 12:31:00,56.3,53.1,30.20,West,267,8.0,8.0,89,0.00,,SKC,0.00,VWS V14.01,2013-05-09 19:31:00,
2013-05-09 12:36:00,56.6,53.1,30.20,WSW,252,7.0,9.0,88,0.00,,SKC,0.00,VWS V14.01,2013-05-09 19:36:00,
2013-05-09 12:41:00,56.5,53.3,30.20,WSW,257,9.0,9.0,89,0.00,,SKC,0.00,VWS V14.01,2013-05-09 19:41:00,
2013-05-09 12:46:00,56.5,53.6,30.20,West,262,7.0,10.0,90,0.00,,SKC,0.00,VWS V14.01,2013-05-09 19:46:00,
2013-05-09 12:51:00,56.8,53.9,30.20,West,259,6.0,10.0,90,0.00,,SKC,0.00,VWS V14.01,2013-05-09 19:51:00,
2013-05-09 12:56:00,56.9,53.4,30.20,WSW,250,8.0,10.0,88,0.00,,SKC,0.00,VWS V14.01,2013-05-09 19:56:00,
2013-05-09 13:01:00,57.5,54.3,30.20,West,260,7.0,8.0,89,0.00,,SKC,0.00,VWS V14.01,2013-05-09 20:01:00,
2013-05-09 13:06:00,56.9,53.4,30.20,WSW,253,7.0,8.0,88,0.00,,SKC,0.00,VWS V14.01,2013-05-09 20:06:00,
2013-05-09 13:11:00,57.2,53.4,30.20,West,259,7.0,8.0,87,0.00,,SKC,0.00,VWS V14.01,2013-05-09 20:11:00,
2013-05-09 13:16:00,57.2,53.4,30.20,West,262,6.0,8.0,87,0.00,,SKC,0.00,VWS V14.01,2013-05-09 20:16:00,
2013-05-09 13:21:00,57.9,54.1,30.20,WSW,245,6.0,8.0,87,0.00,,SKC,0.00,VWS V14.01,2013-05-09 20:21:00,
2013-05-09 13:26:00,58.5,55.0,30.20,WSW,258,5.0,9.0,88,0.00,,SKC,0.00,VWS V14.01,2013-05-09 20:26:00,
2013-05-09 13:31:00,58.5,54.7,30.20,West,259,7.0,7.0,87,0.00,,SKC,0.00,VWS V14.01,2013-05-09 20:31:00,
2013-05-09 13:36:00,58.8,54.6,30.20,West,261,6.0,8.0,86,0.00,,SKC,0.00,VWS V14.01,2013-05-09 20:36:00,
2013-05-09 13:41:00,59.2,54.7,30.20,WSW,254,4.0,8.0,85,0.00,,SKC,0.00,VWS V14.01,2013-05-09 20:41:00,
2013-05-09 13:46:00,59.1,54.9,30.20,WSW,251,5.0,7.0,86,0.00,,SKC,0.00,VWS V14.01,2013-05-09 20:46:00,
2013-05-09 13:51:00,59.4,54.9,30.19,West,259,3.0,7.0,85,0.00,,SKC,0.00,VWS V14.01,2013-05-09 20:51:00,
2013-05-09 13:56:00,60.3,55.8,30.19,WSW,253,4.0,7.0,85,0.00,,SKC,0.00,VWS V14.01,2013-05-09 20:56:00,
2013-05-09 14:01:00,60.7,55.8,30.19,WSW,244,5.0,6.0,84,0.00,,SKC,0.00,VWS V14.01,2013-05-09 21:01:00,
2013-05-09 14:07:00,61.3,55.8,30.19,SW,232,5.0,7.0,82,0.00,,SKC,0.00,VWS V14.01,2013-05-09 21:07:00,
2013-05-09 14:12:00,61.8,55.9,30.19,WSW,240,4.0,7.0,81,0.00,,SKC,0.00,VWS V14.01,2013-05-09 21:12:00,
2013-05-09 14:17:00,61.8,55.9,30.19,WSW,252,4.0,6.0,81,0.00,,SKC,0.00,VWS V14.01,2013-05-09 21:17:00,
2013-05-09 14:22:00,62.3,56.1,30.18,SW,234,6.0,7.0,80,0.00,,SKC,0.00,VWS V14.01,2013-05-09 21:22:00,
2013-05-09 14:27:00,62.8,56.5,30.18,SW,232,5.0,7.0,80,0.00,,SKC,0.00,VWS V14.01,2013-05-09 21:27:00,
2013-05-09 14:32:00,62.4,56.2,30.18,West,260,5.0,6.0,80,0.00,,SKC,0.00,VWS V14.01,2013-05-09 21:32:00,
2013-05-09 14:37:00,63.2,56.9,30.18,West,259,7.0,7.0,80,0.00,,SKC,0.00,VWS V14.01,2013-05-09 21:37:00,
2013-05-09 14:42:00,63.9,56.9,30.18,West,259,6.0,8.0,78,0.00,,SKC,0.00,VWS V14.01,2013-05-09 21:42:00,
2013-05-09 14:47:00,63.2,56.6,30.18,West,262,7.0,9.0,79,0.00,,SKC,0.00,VWS V14.01,2013-05-09 21:47:00,
2013-05-09 14:52:00,63.4,57.1,30.17,West,261,6.0,9.0,80,0.00,,SKC,0.00,VWS V14.01,2013-05-09 21:52:00,
2013-05-09 14:57:00,63.5,57.2,30.17,WSW,254,6.0,10.0,80,0.00,,SKC,0.00,VWS V14.01,2013-05-09 21:57:00,
2013-05-09 15:02:00,63.1,56.5,30.17,West,260,8.0,10.0,79,0.00,,SKC,0.00,VWS V14.01,2013-05-09 22:02:00,
2013-05-09 15:07:00,63.4,56.8,30.17,WSW,258,9.0,10.0,79,0.00,,SKC,0.00,VWS V14.01,2013-05-09 22:07:00,
2013-05-09 15:12:00,63.6,57.3,30.17,West,259,7.0,10.0,80,0.00,,SKC,0.00,VWS V14.01,2013-05-09 22:12:00,
2013-05-09 15:17:00,63.4,56.8,30.17,West,263,7.0,9.0,79,0.00,,SKC,0.00,VWS V14.01,2013-05-09 22:17:00,
2013-05-09 15:22:00,63.3,57.0,30.16,WSW,255,8.0,10.0,80,0.00,,SKC,0.00,VWS V14.01,2013-05-09 22:22:00,
2013-05-09 15:27:00,63.9,56.9,30.16,West,259,8.0,10.0,78,0.00,,SKC,0.00,VWS V14.01,2013-05-09 22:27:00,
2013-05-09 15:32:00,63.6,56.6,30.16,WSW,254,6.0,10.0,78,0.00,,SKC,0.00,VWS V14.01,2013-05-09 22:32:00,
2013-05-09 15:37:00,63.6,56.6,30.16,West,261,8.0,10.0,78,0.00,,SKC,0.00,VWS V14.01,2013-05-09 22:37:00,
2013-05-09 15:42:00,64.2,56.8,30.16,WSW,257,8.0,10.0,77,0.00,,SKC,0.00,VWS V14.01,2013-05-09 22:42:00,
2013-05-09 15:47:00,63.8,56.5,30.15,WSW,252,7.0,12.0,77,0.00,,SKC,0.00,VWS V14.01,2013-05-09 22:47:00,
2013-05-09 15:52:00,64.3,56.6,30.15,West,266,9.0,12.0,76,0.00,,SKC,0.00,VWS V14.01,2013-05-09 22:52:00,
2013-05-09 15:57:00,64.4,57.4,30.15,West,261,6.0,12.0,78,0.00,,SKC,0.00,VWS V14.01,2013-05-09 22:57:00,
2013-05-09 16:02:00,64.6,56.9,30.15,WSW,256,7.0,9.0,76,0.00,,SKC,0.00,VWS V14.01,2013-05-09 23:02:00,
2013-05-09 16:07:00,64.4,57.0,30.15,WSW,250,7.0,10.0,77,0.00,,SKC,0.00,VWS V14.01,2013-05-09 23:07:00,
2013-05-09 16:12:00,64.5,56.8,30.15,West,259,9.0,10.0,76,0.00,,SKC,0.00,VWS V14.01,2013-05-09 23:12:00,
2013-05-09 16:17:00,64.4,57.0,30.15,West,263,8.0,10.0,77,0.00,,SKC,0.00,VWS V14.01,2013-05-09 23:17:00,
2013-05-09 16:22:00,64.2,56.5,30.15,West,261,7.0,10.0,76,0.00,,SKC,0.00,VWS V14.01,2013-05-09 23:22:00,
2013-05-09 16:27:00,64.6,56.9,30.15,WSW,256,10.0,11.0,76,0.00,,SKC,0.00,VWS V14.01,2013-05-09 23:27:00,
2013-05-09 16:32:00,64.8,56.7,30.14,WSW,258,9.0,9.0,75,0.00,,SKC,0.00,VWS V14.01,2013-05-09 23:32:00,
2013-05-09 16:37:00,64.8,56.3,30.14,WSW,248,9.0,10.0,74,0.00,,SKC,0.00,VWS V14.01,2013-05-09 23:37:00,
2013-05-09 16:42:00,64.8,56.7,30.14,West,261,11.0,11.0,75,0.00,,SKC,0.00,VWS V14.01,2013-05-09 23:42:00,
2013-05-09 16:47:00,64.7,56.2,30.14,WSW,238,9.0,11.0,74,0.00,,SKC,0.00,VWS V14.01,2013-05-09 23:47:00,
2013-05-09 16:52:00,64.7,56.6,30.14,WSW,248,6.0,12.0,75,0.00,,SKC,0.00,VWS V14.01,2013-05-09 23:52:00,
2013-05-09 16:57:00,64.9,55.7,30.14,West,261,10.0,12.0,72,0.00,,SKC,0.00,VWS V14.01,2013-05-09 23:57:00,
2013-05-09 17:02:00,64.8,55.2,30.13,West,262,9.0,11.0,71,0.00,,SKC,0.00,VWS V14.01,2013-05-10 00:02:00,
2013-05-09 17:07:00,65.0,54.6,30.13,WSW,254,9.0,11.0,69,0.00,,SKC,0.00,VWS V14.01,2013-05-10 00:07:00,
2013-05-09 17:12:00,65.0,53.0,30.14,West,263,10.0,12.0,65,0.00,,SKC,0.00,VWS V14.01,2013-05-10 00:12:00,
2013-05-09 17:17:00,64.9,52.5,30.13,West,263,12.0,12.0,64,0.00,,SKC,0.00,VWS V14.01,2013-05-10 00:17:00,
2013-05-09 17:22:00,64.8,52.8,30.13,West,259,9.0,14.0,65,0.00,,SKC,0.00,VWS V14.01,2013-05-10 00:22:00,
2013-05-09 17:27:00,64.7,53.1,30.13,West,263,11.0,14.0,66,0.00,,SKC,0.00,VWS V14.01,2013-05-10 00:27:00,
2013-05-09 17:32:00,64.7,54.7,30.13,West,267,8.0,12.0,70,0.00,,SKC,0.00,VWS V14.01,2013-05-10 00:32:00,
2013-05-09 17:37:00,64.5,53.7,30.13,WSW,257,8.0,12.0,68,0.00,,SKC,0.00,VWS V14.01,2013-05-10 00:37:00,
2013-05-09 17:43:00,64.5,54.5,30.13,WSW,252,9.0,12.0,70,0.00,,SKC,0.00,VWS V14.01,2013-05-10 00:43:00,
2013-05-09 17:48:00,64.6,54.6,30.13,West,267,6.0,9.0,70,0.00,,SKC,0.00,VWS V14.01,2013-05-10 00:48:00,
2013-05-09 17:53:00,64.7,55.5,30.13,WSW,244,8.0,10.0,72,0.00,,SKC,0.00,VWS V14.01,2013-05-10 00:53:00,
2013-05-09 17:58:00,64.3,55.1,30.13,West,265,9.0,11.0,72,0.00,,SKC,0.00,VWS V14.01,2013-05-10 00:58:00,
2013-05-09 18:03:00,64.2,55.4,30.13,West,261,9.0,10.0,73,0.00,,SKC,0.00,VWS V14.01,2013-05-10 01:03:00,
2013-05-09 18:08:00,64.0,54.4,30.13,West,263,8.0,11.0,71,0.00,,SKC,0.00,VWS V14.01,2013-05-10 01:08:00,
2013-05-09 18:13:00,64.2,54.2,30.13,West,262,7.0,11.0,70,0.00,,SKC,0.00,VWS V14.01,2013-05-10 01:13:00,
2013-05-09 18:18:00,64.2,53.8,30.13,WSW,251,5.0,11.0,69,0.00,,SKC,0.00,VWS V14.01,2013-05-10 01:18:00,
2013-05-09 18:23:00,64.1,54.9,30.13,WSW,257,6.0,11.0,72,0.00,,SKC,0.00,VWS V14.01,2013-05-10 01:23:00,
2013-05-09 18:28:00,64.2,53.8,30.13,WSW,258,8.0,11.0,69,0.00,,SKC,0.00,VWS V14.01,2013-05-10 01:28:00,
2013-05-09 18:33:00,64.0,54.4,30.13,WSW,256,4.0,7.0,71,0.00,,SKC,0.00,VWS V14.01,2013-05-10 01:33:00,
2013-05-09 18:38:00,64.0,55.2,30.12,WSW,242,5.0,8.0,73,0.00,,SKC,0.00,VWS V14.01,2013-05-10 01:38:00,
2013-05-09 18:43:00,64.1,53.7,30.12,WSW,242,4.0,8.0,69,0.00,,SKC,0.00,VWS V14.01,2013-05-10 01:43:00,
2013-05-09 18:48:00,64.3,54.7,30.12,WSW,246,4.0,5.0,71,0.00,,SKC,0.00,VWS V14.01,2013-05-10 01:48:00,
2013-05-09 18:53:00,64.3,54.3,30.12,WSW,251,4.0,5.0,70,0.00,,SKC,0.00,VWS V14.01,2013-05-10 01:53:00,
2013-05-09 18:58:00,64.1,54.1,30.12,WSW,251,2.0,5.0,70,0.00,,SKC,0.00,VWS V14.01,2013-05-10 01:58:00,
2013-05-09 19:03:00,64.1,53.7,30.12,WSW,250,3.0,4.0,69,0.00,,SKC,0.00,VWS V14.01,2013-05-10 02:03:00,
2013-05-09 19:08:00,64.0,54.0,30.12,WSW,247,4.0,5.0,70,0.00,,SKC,0.00,VWS V14.01,2013-05-10 02:08:00,
2013-05-09 19:13:00,63.8,53.8,30.12,WSW,242,3.0,6.0,70,0.00,,SKC,0.00,VWS V14.01,2013-05-10 02:13:00,
2013-05-09 19:18:00,63.7,54.1,30.12,WSW,257,4.0,7.0,71,0.00,,SKC,0.00,VWS V14.01,2013-05-10 02:18:00,
2013-05-09 19:23:00,63.0,54.2,30.12,West,268,5.0,8.0,73,0.00,,SKC,0.00,VWS V14.01,2013-05-10 02:23:00,
2013-05-09 19:28:00,62.3,54.3,30.12,West,259,5.0,8.0,75,0.00,,SKC,0.00,VWS V14.01,2013-05-10 02:28:00,
2013-05-09 19:33:00,61.7,54.4,30.13,WSW,257,8.0,9.0,77,0.00,,SKC,0.00,VWS V14.01,2013-05-10 02:33:00,
2013-05-09 19:38:00,61.1,53.8,30.13,West,270,9.0,10.0,77,0.00,,SKC,0.00,VWS V14.01,2013-05-10 02:38:00,
2013-05-09 19:43:00,60.5,53.6,30.13,West,263,8.0,11.0,78,0.00,,SKC,0.00,VWS V14.01,2013-05-10 02:43:00,
2013-05-09 19:48:00,60.0,53.8,30.13,West,259,7.0,10.0,80,0.00,,SKC,0.00,VWS V14.01,2013-05-10 02:48:00,
2013-05-09 19:53:00,59.6,53.4,30.13,West,260,8.0,10.0,80,0.00,,SKC,0.00,VWS V14.01,2013-05-10 02:53:00,
2013-05-09 19:58:00,59.3,53.5,30.13,WSW,255,4.0,10.0,81,0.00,,SKC,0.00,VWS V14.01,2013-05-10 02:58:00,
2013-05-09 20:03:00,59.2,53.4,30.13,West,270,6.0,8.0,81,0.00,,SKC,0.00,VWS V14.01,2013-05-10 03:03:00,
2013-05-09 20:08:00,59.0,53.2,30.13,WSW,256,6.0,8.0,81,0.00,,SKC,0.00,VWS V14.01,2013-05-10 03:08:00,
2013-05-09 20:13:00,58.8,53.3,30.13,WSW,255,6.0,8.0,82,0.00,,SKC,0.00,VWS V14.01,2013-05-10 03:13:00,
2013-05-09 20:18:00,58.5,53.0,30.13,West,271,7.0,7.0,82,0.00,,SKC,0.00,VWS V14.01,2013-05-10 03:18:00,
2013-05-09 20:23:00,58.3,52.8,30.13,West,267,3.0,7.0,82,0.00,,SKC,0.00,VWS V14.01,2013-05-10 03:23:00,
2013-05-09 20:28:00,58.1,53.3,30.13,West,261,4.0,7.0,84,0.00,,SKC,0.00,VWS V14.01,2013-05-10 03:28:00,
2013-05-09 20:33:00,57.9,52.8,30.13,WSW,256,6.0,8.0,83,0.00,,SKC,0.00,VWS V14.01,2013-05-10 03:33:00,
2013-05-09 20:38:00,57.6,52.5,30.13,WSW,258,5.0,8.0,83,0.00,,SKC,0.00,VWS V14.01,2013-05-10 03:38:00,
2013-05-09 20:43:00,57.3,52.5,30.14,West,259,3.0,8.0,84,0.00,,SKC,0.00,VWS V14.01,2013-05-10 03:43:00,
2013-05-09 20:48:00,57.2,52.4,30.14,West,265,4.0,6.0,84,0.00,,SKC,0.00,VWS V14.01,2013-05-10 03:48:00,
2013-05-09 20:53:00,56.9,52.4,30.14,WSW,252,5.0,6.0,85,0.00,,SKC,0.00,VWS V14.01,2013-05-10 03:53:00,
2013-05-09 20:58:00,56.8,52.3,30.14,West,259,5.0,6.0,85,0.00,,SKC,0.00,VWS V14.01,2013-05-10 03:58:00,
2013-05-09 21:01:00,56.7,52.6,30.14,West,265,3.0,5.0,86,0.00,,SKC,0.00,VWS V14.01,2013-05-10 04:01:00,
2013-05-09 21:02:00,56.7,52.6,30.14,West,261,4.0,5.0,86,0.00,,SKC,0.00,VWS V14.01,2013-05-10 04:02:00,
2013-05-09 21:04:00,56.6,52.2,30.14,WSW,258,3.0,5.0,85,0.00,,SKC,0.00,VWS V14.01,2013-05-10 04:04:00,
2013-05-09 21:06:00,56.5,52.0,30.14,WSW,257,4.0,5.0,85,0.00,,SKC,0.00,VWS V14.01,2013-05-10 04:06:00,
2013-05-09 21:11:00,56.4,52.3,30.14,West,260,4.0,6.0,86,0.00,,SKC,0.00,VWS V14.01,2013-05-10 04:11:00,
2013-05-09 21:16:00,56.3,52.2,30.15,West,260,2.0,4.0,86,0.00,,SKC,0.00,VWS V14.01,2013-05-10 04:16:00,
2013-05-09 21:21:00,56.2,52.1,30.15,West,273,3.0,4.0,86,0.00,,SKC,0.00,VWS V14.01,2013-05-10 04:21:00,
2013-05-09 21:26:00,55.9,51.8,30.15,West,273,0.0,4.0,86,0.00,,SKC,0.00,VWS V14.01,2013-05-10 04:26:00,
2013-05-09 21:31:00,55.8,52.0,30.15,West,273,0.0,1.0,87,0.00,,SKC,0.00,VWS V14.01,2013-05-10 04:31:00,
2013-05-09 21:36:00,55.5,51.7,30.15,West,273,0.0,1.0,87,0.00,,SKC,0.00,VWS V14.01,2013-05-10 04:36:00,
2013-05-09 21:41:00,55.4,51.6,30.15,West,273,0.0,1.0,87,0.00,,SKC,0.00,VWS V14.01,2013-05-10 04:41:00,
2013-05-09 21:46:00,55.1,51.6,30.15,West,273,0.0,1.0,88,0.00,,SKC,0.00,VWS V14.01,2013-05-10 04:46:00,
2013-05-09 21:51:00,54.5,51.3,30.15,West,273,0.0,1.0,89,0.00,,SKC,0.00,VWS V14.01,2013-05-10 04:51:00,
2013-05-09 21:56:00,54.1,51.2,30.15,West,273,0.0,1.0,90,0.00,,SKC,0.00,VWS V14.01,2013-05-10 04:56:00,
2013-05-09 22:01:00,53.9,51.0,30.16,West,273,0.0,0.0,90,0.00,,SKC,0.00,VWS V14.01,2013-05-10 05:01:00,
2013-05-09 22:06:00,53.8,51.2,30.16,West,273,0.0,0.0,91,0.00,,SKC,0.00,VWS V14.01,2013-05-10 05:06:00,
2013-05-09 22:12:00,53.7,51.1,30.16,West,273,0.0,0.0,91,0.00,,SKC,0.00,VWS V14.01,2013-05-10 05:12:00,
2013-05-09 22:17:00,53.6,51.0,30.16,West,273,0.0,0.0,91,0.00,,SKC,0.00,VWS V14.01,2013-05-10 05:17:00,
2013-05-09 22:22:00,53.7,51.4,30.16,West,273,0.0,0.0,92,0.00,,SKC,0.00,VWS V14.01,2013-05-10 05:22:00,
2013-05-09 22:27:00,53.8,51.5,30.16,West,273,0.0,0.0,92,0.00,,SKC,0.00,VWS V14.01,2013-05-10 05:27:00,
2013-05-09 22:32:00,53.5,51.2,30.16,West,273,0.0,0.0,92,0.00,,SKC,0.00,VWS V14.01,2013-05-10 05:32:00,
2013-05-09 22:37:00,53.5,51.2,30.16,West,273,0.0,1.0,92,0.00,,SKC,0.00,VWS V14.01,2013-05-10 05:37:00,
2013-05-09 22:42:00,53.6,51.3,30.16,West,281,1.0,2.0,92,0.00,,SKC,0.00,VWS V14.01,2013-05-10 05:42:00,
2013-05-09 22:47:00,53.4,50.8,30.16,WNW,282,0.0,0.0,91,0.00,,SKC,0.00,VWS V14.01,2013-05-10 05:47:00,
2013-05-09 22:52:00,52.9,50.3,30.16,WNW,282,0.0,1.0,91,0.00,,SKC,0.00,VWS V14.01,2013-05-10 05:52:00,
2013-05-09 22:57:00,52.8,50.5,30.16,WNW,282,0.0,1.0,92,0.00,,SKC,0.00,VWS V14.01,2013-05-10 05:57:00,
2013-05-09 23:02:00,52.6,50.0,30.16,WNW,282,0.0,1.0,91,0.00,,SKC,0.00,VWS V14.01,2013-05-10 06:02:00,
2013-05-09 23:07:00,52.5,50.0,30.16,WNW,282,0.0,1.0,91,0.00,,SKC,0.00,VWS V14.01,2013-05-10 06:07:00,
2013-05-09 23:12:00,52.4,49.8,30.16,WNW,282,0.0,1.0,91,0.00,,SKC,0.00,VWS V14.01,2013-05-10 06:12:00,
2013-05-09 23:17:00,52.3,49.8,30.16,WNW,282,0.0,0.0,91,0.00,,SKC,0.00,VWS V14.01,2013-05-10 06:17:00,
2013-05-09 23:22:00,52.3,49.8,30.17,WNW,282,0.0,0.0,91,0.00,,SKC,0.00,VWS V14.01,2013-05-10 06:22:00,
2013-05-09 23:27:00,52.3,49.8,30.17,WNW,282,0.0,0.0,91,0.00,,SKC,0.00,VWS V14.01,2013-05-10 06:27:00,
2013-05-09 23:32:00,52.0,49.8,30.17,WNW,282,0.0,0.0,92,0.00,,SKC,0.00,VWS V14.01,2013-05-10 06:32:00,
2013-05-09 23:37:00,51.8,49.5,30.17,WNW,282,0.0,1.0,92,0.00,,SKC,0.00,VWS V14.01,2013-05-10 06:37:00,
2013-05-09 23:42:00,51.5,49.3,30.17,WNW,282,0.0,1.0,92,0.00,,SKC,0.00,VWS V14.01,2013-05-10 06:42:00,
2013-05-09 23:47:00,51.4,49.5,30.17,WNW,282,0.0,1.0,93,0.00,,SKC,0.00,VWS V14.01,2013-05-10 06:47:00,
2013-05-09 23:52:00,51.0,49.0,30.17,WNW,282,0.0,2.0,93,0.00,,SKC,0.00,VWS V14.01,2013-05-10 06:52:00,
2013-05-09 23:57:00,50.8,48.8,30.17,WNW,282,1.0,2.0,93,0.00,,SKC,0.00,VWS V14.01,2013-05-10 06:57:00,